sensor_id;sensor_type;location;lat;lon;timestamp;P1;durP1;ratioP1;P2;durP2;ratioP2
19329;SDS011;9799;48.214;16.388;2023-04-10T00:01:53;19.80;;;14.70;;
19329;SDS011;9799;48.214;16.388;2023-04-10T00:05:14;18.00;;;14.47;;
19329;SDS011;9799;48.214;16.388;2023-04-10T00:08:36;18.07;;;14.33;;
19329;SDS011;9799;48.214;16.388;2023-04-10T00:11:57;19.00;;;13.47;;
19329;SDS011;9799;48.214;16.388;2023-04-10T00:15:20;19.03;;;13.33;;
19329;SDS011;9799;48.214;16.388;2023-04-10T00:18:41;16.07;;;13.13;;
19329;SDS011;9799;48.214;16.388;2023-04-10T00:22:02;18.17;;;13.10;;
19329;SDS011;9799;48.214;16.388;2023-04-10T00:25:24;15.40;;;12.17;;
19329;SDS011;9799;48.214;16.388;2023-04-10T00:28:45;17.23;;;13.70;;
19329;SDS011;9799;48.214;16.388;2023-04-10T00:32:08;16.83;;;13.03;;
19329;SDS011;9799;48.214;16.388;2023-04-10T00:35:29;15.80;;;12.67;;
19329;SDS011;9799;48.214;16.388;2023-04-10T00:38:50;17.03;;;13.17;;
19329;SDS011;9799;48.214;16.388;2023-04-10T00:42:11;17.33;;;12.63;;
19329;SDS011;9799;48.214;16.388;2023-04-10T00:45:33;17.07;;;12.00;;
19329;SDS011;9799;48.214;16.388;2023-04-10T00:48:55;18.37;;;13.17;;
19329;SDS011;9799;48.214;16.388;2023-04-10T00:52:17;15.03;;;12.20;;
19329;SDS011;9799;48.214;16.388;2023-04-10T00:55:39;16.43;;;12.30;;
19329;SDS011;9799;48.214;16.388;2023-04-10T00:59:00;18.60;;;13.70;;
19329;SDS011;9799;48.214;16.388;2023-04-10T01:02:22;16.67;;;12.50;;
19329;SDS011;9799;48.214;16.388;2023-04-10T01:05:46;14.83;;;11.97;;
19329;SDS011;9799;48.214;16.388;2023-04-10T01:09:16;15.63;;;12.50;;
19329;SDS011;9799;48.214;16.388;2023-04-10T01:12:50;17.30;;;13.00;;
19329;SDS011;9799;48.214;16.388;2023-04-10T01:16:17;16.43;;;12.80;;
19329;SDS011;9799;48.214;16.388;2023-04-10T01:20:01;15.87;;;12.20;;
19329;SDS011;9799;48.214;16.388;2023-04-10T01:23:34;16.67;;;11.57;;
19329;SDS011;9799;48.214;16.388;2023-04-10T01:27:28;16.37;;;12.30;;
19329;SDS011;9799;48.214;16.388;2023-04-10T01:31:00;15.10;;;11.57;;
19329;SDS011;9799;48.214;16.388;2023-04-10T01:34:23;17.10;;;13.10;;
19329;SDS011;9799;48.214;16.388;2023-04-10T01:37:47;16.27;;;12.27;;
19329;SDS011;9799;48.214;16.388;2023-04-10T01:41:12;17.83;;;13.50;;
19329;SDS011;9799;48.214;16.388;2023-04-10T01:44:35;16.07;;;11.97;;
19329;SDS011;9799;48.214;16.388;2023-04-10T01:48:01;18.17;;;12.57;;
19329;SDS011;9799;48.214;16.388;2023-04-10T01:51:23;15.60;;;11.73;;
19329;SDS011;9799;48.214;16.388;2023-04-10T01:54:46;13.77;;;11.10;;
19329;SDS011;9799;48.214;16.388;2023-04-10T01:58:08;14.83;;;11.70;;
19329;SDS011;9799;48.214;16.388;2023-04-10T02:01:30;16.63;;;12.23;;
19329;SDS011;9799;48.214;16.388;2023-04-10T02:04:52;17.27;;;12.10;;
19329;SDS011;9799;48.214;16.388;2023-04-10T02:08:14;14.53;;;10.77;;
19329;SDS011;9799;48.214;16.388;2023-04-10T02:11:43;15.47;;;11.40;;
19329;SDS011;9799;48.214;16.388;2023-04-10T02:15:09;14.67;;;11.30;;
19329;SDS011;9799;48.214;16.388;2023-04-10T02:18:32;15.80;;;11.97;;
19329;SDS011;9799;48.214;16.388;2023-04-10T02:21:56;13.67;;;11.13;;
19329;SDS011;9799;48.214;16.388;2023-04-10T02:25:18;14.67;;;11.57;;
19329;SDS011;9799;48.214;16.388;2023-04-10T02:28:39;16.43;;;11.97;;
19329;SDS011;9799;48.214;16.388;2023-04-10T02:32:00;17.23;;;12.13;;
19329;SDS011;9799;48.214;16.388;2023-04-10T02:35:21;16.13;;;11.30;;
19329;SDS011;9799;48.214;16.388;2023-04-10T02:38:43;15.73;;;11.10;;
19329;SDS011;9799;48.214;16.388;2023-04-10T02:42:05;16.37;;;11.60;;
19329;SDS011;9799;48.214;16.388;2023-04-10T02:45:26;15.43;;;11.83;;
19329;SDS011;9799;48.214;16.388;2023-04-10T02:48:47;17.20;;;11.40;;
19329;SDS011;9799;48.214;16.388;2023-04-10T02:52:08;15.50;;;11.70;;
19329;SDS011;9799;48.214;16.388;2023-04-10T02:55:30;13.53;;;10.77;;
19329;SDS011;9799;48.214;16.388;2023-04-10T02:58:51;15.00;;;12.00;;
19329;SDS011;9799;48.214;16.388;2023-04-10T03:02:13;15.57;;;11.27;;
19329;SDS011;9799;48.214;16.388;2023-04-10T03:05:34;16.47;;;11.50;;
19329;SDS011;9799;48.214;16.388;2023-04-10T03:08:55;14.43;;;11.90;;
19329;SDS011;9799;48.214;16.388;2023-04-10T03:12:18;14.30;;;11.17;;
19329;SDS011;9799;48.214;16.388;2023-04-10T03:15:39;16.77;;;11.83;;
19329;SDS011;9799;48.214;16.388;2023-04-10T03:19:00;14.53;;;11.53;;
19329;SDS011;9799;48.214;16.388;2023-04-10T03:22:22;15.60;;;11.77;;
19329;SDS011;9799;48.214;16.388;2023-04-10T03:25:43;17.17;;;12.57;;
19329;SDS011;9799;48.214;16.388;2023-04-10T03:29:05;14.57;;;11.37;;
19329;SDS011;9799;48.214;16.388;2023-04-10T03:32:27;14.63;;;11.60;;
19329;SDS011;9799;48.214;16.388;2023-04-10T03:35:49;15.73;;;11.70;;
19329;SDS011;9799;48.214;16.388;2023-04-10T03:39:11;15.73;;;11.43;;
19329;SDS011;9799;48.214;16.388;2023-04-10T03:42:33;14.70;;;12.00;;
19329;SDS011;9799;48.214;16.388;2023-04-10T03:45:55;15.73;;;10.87;;
19329;SDS011;9799;48.214;16.388;2023-04-10T03:49:16;15.47;;;11.60;;
19329;SDS011;9799;48.214;16.388;2023-04-10T03:52:38;17.30;;;12.37;;
19329;SDS011;9799;48.214;16.388;2023-04-10T03:56:00;14.30;;;11.80;;
19329;SDS011;9799;48.214;16.388;2023-04-10T03:59:21;13.47;;;10.60;;
19329;SDS011;9799;48.214;16.388;2023-04-10T04:02:43;16.97;;;12.03;;
19329;SDS011;9799;48.214;16.388;2023-04-10T04:06:05;15.57;;;11.60;;
19329;SDS011;9799;48.214;16.388;2023-04-10T04:09:26;15.40;;;10.93;;
19329;SDS011;9799;48.214;16.388;2023-04-10T04:12:47;13.27;;;10.77;;
19329;SDS011;9799;48.214;16.388;2023-04-10T04:16:09;15.70;;;11.57;;
19329;SDS011;9799;48.214;16.388;2023-04-10T04:19:31;14.53;;;11.20;;
19329;SDS011;9799;48.214;16.388;2023-04-10T04:22:52;14.23;;;10.73;;
19329;SDS011;9799;48.214;16.388;2023-04-10T04:26:14;16.77;;;11.83;;
19329;SDS011;9799;48.214;16.388;2023-04-10T04:29:35;20.77;;;11.27;;
19329;SDS011;9799;48.214;16.388;2023-04-10T04:32:56;14.80;;;10.50;;
19329;SDS011;9799;48.214;16.388;2023-04-10T04:36:19;15.57;;;11.93;;
19329;SDS011;9799;48.214;16.388;2023-04-10T04:39:40;15.07;;;11.27;;
19329;SDS011;9799;48.214;16.388;2023-04-10T04:43:01;13.57;;;10.20;;
19329;SDS011;9799;48.214;16.388;2023-04-10T04:46:22;14.23;;;11.07;;
19329;SDS011;9799;48.214;16.388;2023-04-10T04:49:44;12.77;;;10.27;;
19329;SDS011;9799;48.214;16.388;2023-04-10T04:53:06;13.57;;;10.70;;
19329;SDS011;9799;48.214;16.388;2023-04-10T04:56:27;14.73;;;10.87;;
19329;SDS011;9799;48.214;16.388;2023-04-10T04:59:48;15.57;;;11.77;;
19329;SDS011;9799;48.214;16.388;2023-04-10T05:03:10;14.83;;;10.77;;
19329;SDS011;9799;48.214;16.388;2023-04-10T05:06:31;18.00;;;12.90;;
19329;SDS011;9799;48.214;16.388;2023-04-10T05:09:53;14.23;;;11.13;;
19329;SDS011;9799;48.214;16.388;2023-04-10T05:13:14;14.93;;;11.13;;
19329;SDS011;9799;48.214;16.388;2023-04-10T05:16:36;16.20;;;11.73;;
19329;SDS011;9799;48.214;16.388;2023-04-10T05:19:57;14.73;;;11.23;;
19329;SDS011;9799;48.214;16.388;2023-04-10T05:23:19;16.57;;;12.03;;
19329;SDS011;9799;48.214;16.388;2023-04-10T05:26:41;16.13;;;12.20;;
19329;SDS011;9799;48.214;16.388;2023-04-10T05:30:03;15.37;;;11.20;;
19329;SDS011;9799;48.214;16.388;2023-04-10T05:33:24;17.40;;;11.57;;
19329;SDS011;9799;48.214;16.388;2023-04-10T05:36:45;15.17;;;11.17;;
19329;SDS011;9799;48.214;16.388;2023-04-10T05:40:07;19.33;;;12.67;;
19329;SDS011;9799;48.214;16.388;2023-04-10T05:43:30;18.80;;;12.23;;
19329;SDS011;9799;48.214;16.388;2023-04-10T05:46:51;14.13;;;11.47;;
19329;SDS011;9799;48.214;16.388;2023-04-10T05:50:12;15.87;;;11.43;;
19329;SDS011;9799;48.214;16.388;2023-04-10T05:53:33;15.57;;;11.77;;
19329;SDS011;9799;48.214;16.388;2023-04-10T05:56:55;17.07;;;13.37;;
19329;SDS011;9799;48.214;16.388;2023-04-10T06:00:17;15.43;;;12.40;;
19329;SDS011;9799;48.214;16.388;2023-04-10T06:03:39;17.97;;;13.10;;
19329;SDS011;9799;48.214;16.388;2023-04-10T06:07:00;16.20;;;12.87;;
19329;SDS011;9799;48.214;16.388;2023-04-10T06:10:21;17.13;;;13.53;;
19329;SDS011;9799;48.214;16.388;2023-04-10T06:13:42;16.47;;;13.20;;
19329;SDS011;9799;48.214;16.388;2023-04-10T06:17:05;18.37;;;13.67;;
19329;SDS011;9799;48.214;16.388;2023-04-10T06:20:26;17.50;;;13.23;;
19329;SDS011;9799;48.214;16.388;2023-04-10T06:23:47;18.30;;;14.43;;
19329;SDS011;9799;48.214;16.388;2023-04-10T06:27:08;19.60;;;13.63;;
19329;SDS011;9799;48.214;16.388;2023-04-10T06:30:30;19.03;;;13.80;;
19329;SDS011;9799;48.214;16.388;2023-04-10T06:33:54;20.33;;;14.27;;
19329;SDS011;9799;48.214;16.388;2023-04-10T06:37:15;19.10;;;14.27;;
19329;SDS011;9799;48.214;16.388;2023-04-10T06:40:36;18.10;;;14.00;;
19329;SDS011;9799;48.214;16.388;2023-04-10T06:43:57;21.73;;;14.37;;
19329;SDS011;9799;48.214;16.388;2023-04-10T06:47:18;23.87;;;15.70;;
19329;SDS011;9799;48.214;16.388;2023-04-10T06:50:41;21.87;;;16.20;;
19329;SDS011;9799;48.214;16.388;2023-04-10T06:54:02;21.67;;;15.43;;
19329;SDS011;9799;48.214;16.388;2023-04-10T06:57:23;17.50;;;13.83;;
19329;SDS011;9799;48.214;16.388;2023-04-10T07:00:44;19.17;;;14.70;;
19329;SDS011;9799;48.214;16.388;2023-04-10T07:04:05;20.70;;;15.17;;
19329;SDS011;9799;48.214;16.388;2023-04-10T07:07:28;20.77;;;15.93;;
19329;SDS011;9799;48.214;16.388;2023-04-10T07:10:49;18.43;;;14.60;;
19329;SDS011;9799;48.214;16.388;2023-04-10T07:14:10;20.23;;;15.23;;
19329;SDS011;9799;48.214;16.388;2023-04-10T07:17:31;21.03;;;16.13;;
19329;SDS011;9799;48.214;16.388;2023-04-10T07:20:53;25.20;;;16.73;;
19329;SDS011;9799;48.214;16.388;2023-04-10T07:24:15;23.97;;;17.53;;
19329;SDS011;9799;48.214;16.388;2023-04-10T07:27:37;21.90;;;17.10;;
19329;SDS011;9799;48.214;16.388;2023-04-10T07:30:58;21.77;;;16.43;;
19329;SDS011;9799;48.214;16.388;2023-04-10T07:34:19;22.03;;;15.83;;
19329;SDS011;9799;48.214;16.388;2023-04-10T07:37:40;22.33;;;16.93;;
19329;SDS011;9799;48.214;16.388;2023-04-10T07:41:04;25.27;;;17.27;;
19329;SDS011;9799;48.214;16.388;2023-04-10T07:44:25;24.07;;;17.20;;
19329;SDS011;9799;48.214;16.388;2023-04-10T07:47:47;23.63;;;17.77;;
19329;SDS011;9799;48.214;16.388;2023-04-10T07:51:08;23.83;;;17.70;;
19329;SDS011;9799;48.214;16.388;2023-04-10T07:54:30;23.90;;;19.00;;
19329;SDS011;9799;48.214;16.388;2023-04-10T07:57:53;27.03;;;19.90;;
19329;SDS011;9799;48.214;16.388;2023-04-10T08:01:15;26.93;;;19.43;;
19329;SDS011;9799;48.214;16.388;2023-04-10T08:04:36;23.63;;;18.27;;
19329;SDS011;9799;48.214;16.388;2023-04-10T08:07:57;24.80;;;18.73;;
19329;SDS011;9799;48.214;16.388;2023-04-10T08:11:22;25.73;;;19.97;;
19329;SDS011;9799;48.214;16.388;2023-04-10T08:14:47;28.37;;;20.27;;
19329;SDS011;9799;48.214;16.388;2023-04-10T08:18:09;30.53;;;21.47;;
19329;SDS011;9799;48.214;16.388;2023-04-10T08:21:30;29.80;;;20.97;;
19329;SDS011;9799;48.214;16.388;2023-04-10T08:24:51;30.90;;;21.50;;
19329;SDS011;9799;48.214;16.388;2023-04-10T08:28:13;28.60;;;20.07;;
19329;SDS011;9799;48.214;16.388;2023-04-10T08:31:35;28.60;;;20.93;;
19329;SDS011;9799;48.214;16.388;2023-04-10T08:34:56;27.13;;;19.90;;
19329;SDS011;9799;48.214;16.388;2023-04-10T08:38:17;29.63;;;21.33;;
19329;SDS011;9799;48.214;16.388;2023-04-10T08:41:40;28.13;;;20.87;;
19329;SDS011;9799;48.214;16.388;2023-04-10T08:45:02;25.97;;;19.57;;
19329;SDS011;9799;48.214;16.388;2023-04-10T08:48:26;30.20;;;21.83;;
19329;SDS011;9799;48.214;16.388;2023-04-10T08:51:54;26.40;;;20.10;;
19329;SDS011;9799;48.214;16.388;2023-04-10T08:55:17;30.30;;;20.73;;
19329;SDS011;9799;48.214;16.388;2023-04-10T08:58:39;26.37;;;20.93;;
19329;SDS011;9799;48.214;16.388;2023-04-10T09:02:01;29.10;;;21.27;;
19329;SDS011;9799;48.214;16.388;2023-04-10T09:05:24;26.43;;;20.97;;
19329;SDS011;9799;48.214;16.388;2023-04-10T09:08:46;27.63;;;20.73;;
19329;SDS011;9799;48.214;16.388;2023-04-10T09:12:07;28.97;;;21.00;;
19329;SDS011;9799;48.214;16.388;2023-04-10T09:15:29;29.00;;;20.90;;
19329;SDS011;9799;48.214;16.388;2023-04-10T09:18:50;27.73;;;20.57;;
19329;SDS011;9799;48.214;16.388;2023-04-10T09:22:13;28.77;;;20.60;;
19329;SDS011;9799;48.214;16.388;2023-04-10T09:25:36;27.50;;;21.33;;
19329;SDS011;9799;48.214;16.388;2023-04-10T09:28:59;27.47;;;19.60;;
19329;SDS011;9799;48.214;16.388;2023-04-10T09:32:37;27.53;;;21.23;;
19329;SDS011;9799;48.214;16.388;2023-04-10T09:36:00;28.80;;;20.87;;
19329;SDS011;9799;48.214;16.388;2023-04-10T09:39:31;28.47;;;21.03;;
19329;SDS011;9799;48.214;16.388;2023-04-10T09:42:55;28.80;;;21.03;;
19329;SDS011;9799;48.214;16.388;2023-04-10T09:46:24;26.53;;;20.90;;
19329;SDS011;9799;48.214;16.388;2023-04-10T09:49:47;29.83;;;21.43;;
19329;SDS011;9799;48.214;16.388;2023-04-10T09:53:11;29.37;;;21.90;;
19329;SDS011;9799;48.214;16.388;2023-04-10T09:56:36;28.27;;;20.80;;
19329;SDS011;9799;48.214;16.388;2023-04-10T09:59:59;28.83;;;21.13;;
19329;SDS011;9799;48.214;16.388;2023-04-10T10:03:22;27.70;;;21.53;;
19329;SDS011;9799;48.214;16.388;2023-04-10T10:06:44;26.63;;;20.73;;
19329;SDS011;9799;48.214;16.388;2023-04-10T10:10:06;27.07;;;21.40;;
19329;SDS011;9799;48.214;16.388;2023-04-10T10:13:30;28.43;;;22.00;;
19329;SDS011;9799;48.214;16.388;2023-04-10T10:16:55;27.93;;;21.57;;
19329;SDS011;9799;48.214;16.388;2023-04-10T10:20:21;30.00;;;21.87;;
19329;SDS011;9799;48.214;16.388;2023-04-10T10:23:44;31.73;;;22.40;;
19329;SDS011;9799;48.214;16.388;2023-04-10T10:27:12;27.03;;;22.13;;
19329;SDS011;9799;48.214;16.388;2023-04-10T10:30:37;27.40;;;20.20;;
19329;SDS011;9799;48.214;16.388;2023-04-10T10:33:59;30.23;;;20.93;;
19329;SDS011;9799;48.214;16.388;2023-04-10T10:37:22;28.33;;;21.63;;
19329;SDS011;9799;48.214;16.388;2023-04-10T10:40:46;33.07;;;23.43;;
19329;SDS011;9799;48.214;16.388;2023-04-10T10:44:12;32.13;;;22.70;;
19329;SDS011;9799;48.214;16.388;2023-04-10T10:47:42;26.93;;;21.70;;
19329;SDS011;9799;48.214;16.388;2023-04-10T10:51:06;30.87;;;23.57;;
19329;SDS011;9799;48.214;16.388;2023-04-10T10:54:28;26.80;;;21.37;;
19329;SDS011;9799;48.214;16.388;2023-04-10T10:57:50;31.27;;;23.80;;
19329;SDS011;9799;48.214;16.388;2023-04-10T11:01:13;29.13;;;22.37;;
19329;SDS011;9799;48.214;16.388;2023-04-10T11:04:45;31.00;;;22.33;;
19329;SDS011;9799;48.214;16.388;2023-04-10T11:08:07;31.23;;;23.23;;
19329;SDS011;9799;48.214;16.388;2023-04-10T11:11:28;28.90;;;22.03;;
19329;SDS011;9799;48.214;16.388;2023-04-10T11:14:56;29.00;;;22.40;;
19329;SDS011;9799;48.214;16.388;2023-04-10T11:18:18;27.77;;;21.50;;
19329;SDS011;9799;48.214;16.388;2023-04-10T11:25:40;26.57;;;20.47;;
19329;SDS011;9799;48.214;16.388;2023-04-10T11:33:02;25.93;;;20.67;;
19329;SDS011;9799;48.214;16.388;2023-04-10T11:36:24;25.43;;;20.80;;
19329;SDS011;9799;48.214;16.388;2023-04-10T11:39:47;25.90;;;20.07;;
19329;SDS011;9799;48.214;16.388;2023-04-10T11:43:12;27.73;;;21.73;;
19329;SDS011;9799;48.214;16.388;2023-04-10T11:46:34;26.37;;;20.27;;
19329;SDS011;9799;48.214;16.388;2023-04-10T11:49:57;30.43;;;23.23;;
19329;SDS011;9799;48.214;16.388;2023-04-10T11:53:18;28.90;;;23.00;;
19329;SDS011;9799;48.214;16.388;2023-04-10T11:56:41;26.77;;;21.17;;
19329;SDS011;9799;48.214;16.388;2023-04-10T12:00:04;27.17;;;22.33;;
19329;SDS011;9799;48.214;16.388;2023-04-10T12:03:33;27.30;;;21.60;;
19329;SDS011;9799;48.214;16.388;2023-04-10T12:06:55;27.20;;;21.53;;
19329;SDS011;9799;48.214;16.388;2023-04-10T12:10:17;27.43;;;22.60;;
19329;SDS011;9799;48.214;16.388;2023-04-10T12:13:41;27.40;;;22.13;;
19329;SDS011;9799;48.214;16.388;2023-04-10T12:17:03;24.77;;;20.83;;
19329;SDS011;9799;48.214;16.388;2023-04-10T12:20:26;27.53;;;22.30;;
19329;SDS011;9799;48.214;16.388;2023-04-10T12:23:48;28.40;;;22.77;;
19329;SDS011;9799;48.214;16.388;2023-04-10T12:27:16;29.90;;;22.27;;
19329;SDS011;9799;48.214;16.388;2023-04-10T12:30:45;28.83;;;22.03;;
19329;SDS011;9799;48.214;16.388;2023-04-10T12:34:07;26.90;;;20.80;;
19329;SDS011;9799;48.214;16.388;2023-04-10T12:41:09;25.07;;;20.50;;
19329;SDS011;9799;48.214;16.388;2023-04-10T12:44:30;26.60;;;20.40;;
19329;SDS011;9799;48.214;16.388;2023-04-10T12:47:53;26.83;;;21.07;;
19329;SDS011;9799;48.214;16.388;2023-04-10T12:51:14;25.13;;;21.27;;
19329;SDS011;9799;48.214;16.388;2023-04-10T12:54:35;24.17;;;20.00;;
19329;SDS011;9799;48.214;16.388;2023-04-10T12:57:57;26.07;;;20.20;;
19329;SDS011;9799;48.214;16.388;2023-04-10T13:01:35;25.10;;;20.90;;
19329;SDS011;9799;48.214;16.388;2023-04-10T13:04:59;26.00;;;20.40;;
19329;SDS011;9799;48.214;16.388;2023-04-10T13:08:20;25.97;;;20.73;;
19329;SDS011;9799;48.214;16.388;2023-04-10T13:11:42;25.87;;;20.33;;
19329;SDS011;9799;48.214;16.388;2023-04-10T13:15:03;26.20;;;19.47;;
19329;SDS011;9799;48.214;16.388;2023-04-10T13:18:25;25.07;;;20.37;;
19329;SDS011;9799;48.214;16.388;2023-04-10T13:21:48;25.43;;;20.03;;
19329;SDS011;9799;48.214;16.388;2023-04-10T13:25:10;25.30;;;21.40;;
19329;SDS011;9799;48.214;16.388;2023-04-10T13:28:31;27.80;;;21.53;;
19329;SDS011;9799;48.214;16.388;2023-04-10T13:31:52;27.03;;;21.13;;
19329;SDS011;9799;48.214;16.388;2023-04-10T13:35:13;25.03;;;19.93;;
19329;SDS011;9799;48.214;16.388;2023-04-10T13:38:36;24.80;;;20.37;;
19329;SDS011;9799;48.214;16.388;2023-04-10T13:41:57;25.10;;;20.57;;
19329;SDS011;9799;48.214;16.388;2023-04-10T13:45:20;25.00;;;19.87;;
19329;SDS011;9799;48.214;16.388;2023-04-10T13:48:41;25.10;;;19.33;;
19329;SDS011;9799;48.214;16.388;2023-04-10T13:52:02;22.60;;;19.17;;
19329;SDS011;9799;48.214;16.388;2023-04-10T13:55:25;22.37;;;19.23;;
19329;SDS011;9799;48.214;16.388;2023-04-10T13:58:47;24.57;;;19.33;;
19329;SDS011;9799;48.214;16.388;2023-04-10T14:02:08;24.03;;;19.43;;
19329;SDS011;9799;48.214;16.388;2023-04-10T14:05:29;25.70;;;19.47;;
19329;SDS011;9799;48.214;16.388;2023-04-10T14:08:50;23.77;;;19.53;;
19329;SDS011;9799;48.214;16.388;2023-04-10T14:12:13;24.67;;;19.87;;
19329;SDS011;9799;48.214;16.388;2023-04-10T14:15:35;25.60;;;19.63;;
19329;SDS011;9799;48.214;16.388;2023-04-10T14:18:56;22.77;;;19.77;;
19329;SDS011;9799;48.214;16.388;2023-04-10T14:22:17;22.03;;;18.77;;
19329;SDS011;9799;48.214;16.388;2023-04-10T14:25:39;24.30;;;19.43;;
19329;SDS011;9799;48.214;16.388;2023-04-10T14:29:01;22.63;;;18.93;;
19329;SDS011;9799;48.214;16.388;2023-04-10T14:32:23;22.93;;;18.13;;
19329;SDS011;9799;48.214;16.388;2023-04-10T14:35:44;22.17;;;18.33;;
19329;SDS011;9799;48.214;16.388;2023-04-10T14:39:06;21.70;;;18.13;;
19329;SDS011;9799;48.214;16.388;2023-04-10T14:42:27;22.90;;;18.80;;
19329;SDS011;9799;48.214;16.388;2023-04-10T14:45:50;23.77;;;18.43;;
19329;SDS011;9799;48.214;16.388;2023-04-10T14:49:11;22.27;;;17.90;;
19329;SDS011;9799;48.214;16.388;2023-04-10T14:52:33;22.90;;;19.33;;
19329;SDS011;9799;48.214;16.388;2023-04-10T14:55:54;23.83;;;17.90;;
19329;SDS011;9799;48.214;16.388;2023-04-10T14:59:16;23.83;;;17.97;;
19329;SDS011;9799;48.214;16.388;2023-04-10T15:02:38;22.90;;;18.97;;
19329;SDS011;9799;48.214;16.388;2023-04-10T15:06:00;21.90;;;18.07;;
19329;SDS011;9799;48.214;16.388;2023-04-10T15:09:21;20.73;;;17.13;;
19329;SDS011;9799;48.214;16.388;2023-04-10T15:12:42;22.83;;;18.93;;
19329;SDS011;9799;48.214;16.388;2023-04-10T15:16:04;22.40;;;18.33;;
19329;SDS011;9799;48.214;16.388;2023-04-10T15:19:27;22.50;;;17.67;;
19329;SDS011;9799;48.214;16.388;2023-04-10T15:22:48;22.90;;;18.20;;
19329;SDS011;9799;48.214;16.388;2023-04-10T15:26:10;25.07;;;19.67;;
19329;SDS011;9799;48.214;16.388;2023-04-10T15:29:35;23.80;;;17.33;;
19329;SDS011;9799;48.214;16.388;2023-04-10T15:32:58;20.40;;;16.33;;
19329;SDS011;9799;48.214;16.388;2023-04-10T15:36:20;22.97;;;17.80;;
19329;SDS011;9799;48.214;16.388;2023-04-10T15:39:41;22.40;;;17.73;;
19329;SDS011;9799;48.214;16.388;2023-04-10T15:43:03;21.07;;;17.53;;
19329;SDS011;9799;48.214;16.388;2023-04-10T15:46:24;19.57;;;16.90;;
19329;SDS011;9799;48.214;16.388;2023-04-10T15:49:45;23.30;;;18.67;;
19329;SDS011;9799;48.214;16.388;2023-04-10T15:53:08;19.03;;;16.63;;
19329;SDS011;9799;48.214;16.388;2023-04-10T15:56:29;22.17;;;16.87;;
19329;SDS011;9799;48.214;16.388;2023-04-10T15:59:50;23.53;;;18.70;;
19329;SDS011;9799;48.214;16.388;2023-04-10T16:03:14;22.60;;;18.27;;
19329;SDS011;9799;48.214;16.388;2023-04-10T16:06:35;21.50;;;17.47;;
19329;SDS011;9799;48.214;16.388;2023-04-10T16:09:57;20.97;;;16.50;;
19329;SDS011;9799;48.214;16.388;2023-04-10T16:13:19;23.93;;;16.93;;
19329;SDS011;9799;48.214;16.388;2023-04-10T16:16:40;19.73;;;16.47;;
19329;SDS011;9799;48.214;16.388;2023-04-10T16:20:03;21.60;;;16.97;;
19329;SDS011;9799;48.214;16.388;2023-04-10T16:23:25;19.43;;;16.20;;
19329;SDS011;9799;48.214;16.388;2023-04-10T16:26:47;21.13;;;17.07;;
19329;SDS011;9799;48.214;16.388;2023-04-10T16:30:09;20.40;;;16.90;;
19329;SDS011;9799;48.214;16.388;2023-04-10T16:33:31;23.63;;;17.93;;
19329;SDS011;9799;48.214;16.388;2023-04-10T16:36:52;19.57;;;15.90;;
19329;SDS011;9799;48.214;16.388;2023-04-10T16:40:13;22.20;;;17.77;;
19329;SDS011;9799;48.214;16.388;2023-04-10T16:43:36;20.53;;;17.27;;
19329;SDS011;9799;48.214;16.388;2023-04-10T16:46:57;20.03;;;16.70;;
19329;SDS011;9799;48.214;16.388;2023-04-10T16:50:18;25.83;;;18.53;;
19329;SDS011;9799;48.214;16.388;2023-04-10T16:53:39;22.03;;;17.90;;
19329;SDS011;9799;48.214;16.388;2023-04-10T16:57:01;21.73;;;18.10;;
19329;SDS011;9799;48.214;16.388;2023-04-10T17:00:24;21.97;;;17.60;;
19329;SDS011;9799;48.214;16.388;2023-04-10T17:03:46;21.07;;;17.47;;
19329;SDS011;9799;48.214;16.388;2023-04-10T17:07:07;24.03;;;18.37;;
19329;SDS011;9799;48.214;16.388;2023-04-10T17:10:28;22.17;;;18.20;;
19329;SDS011;9799;48.214;16.388;2023-04-10T17:13:49;23.60;;;18.07;;
19329;SDS011;9799;48.214;16.388;2023-04-10T17:17:12;22.17;;;18.03;;
19329;SDS011;9799;48.214;16.388;2023-04-10T17:20:34;23.20;;;18.70;;
19329;SDS011;9799;48.214;16.388;2023-04-10T17:23:55;24.03;;;19.43;;
19329;SDS011;9799;48.214;16.388;2023-04-10T17:27:16;21.70;;;17.50;;
19329;SDS011;9799;48.214;16.388;2023-04-10T17:30:38;23.13;;;17.93;;
19329;SDS011;9799;48.214;16.388;2023-04-10T17:34:00;25.07;;;18.97;;
19329;SDS011;9799;48.214;16.388;2023-04-10T17:37:22;21.57;;;17.50;;
19329;SDS011;9799;48.214;16.388;2023-04-10T17:40:43;21.63;;;17.60;;
19329;SDS011;9799;48.214;16.388;2023-04-10T17:44:05;23.10;;;19.57;;
19329;SDS011;9799;48.214;16.388;2023-04-10T17:47:26;25.90;;;19.60;;
19329;SDS011;9799;48.214;16.388;2023-04-10T17:50:49;24.90;;;18.30;;
19329;SDS011;9799;48.214;16.388;2023-04-10T17:54:10;22.90;;;18.17;;
19329;SDS011;9799;48.214;16.388;2023-04-10T17:57:32;24.20;;;19.43;;
19329;SDS011;9799;48.214;16.388;2023-04-10T18:00:53;24.87;;;19.13;;
19329;SDS011;9799;48.214;16.388;2023-04-10T18:04:14;25.40;;;20.00;;
19329;SDS011;9799;48.214;16.388;2023-04-10T18:07:37;23.40;;;19.33;;
19329;SDS011;9799;48.214;16.388;2023-04-10T18:10:58;24.53;;;19.70;;
19329;SDS011;9799;48.214;16.388;2023-04-10T18:14:19;25.67;;;21.03;;
19329;SDS011;9799;48.214;16.388;2023-04-10T18:17:41;24.97;;;19.90;;
19329;SDS011;9799;48.214;16.388;2023-04-10T18:21:02;27.70;;;21.17;;
19329;SDS011;9799;48.214;16.388;2023-04-10T18:24:25;24.83;;;19.57;;
19329;SDS011;9799;48.214;16.388;2023-04-10T18:27:46;24.37;;;19.30;;
19329;SDS011;9799;48.214;16.388;2023-04-10T18:31:08;26.40;;;19.73;;
19329;SDS011;9799;48.214;16.388;2023-04-10T18:34:30;22.73;;;19.30;;
19329;SDS011;9799;48.214;16.388;2023-04-10T18:37:52;25.33;;;20.97;;
19329;SDS011;9799;48.214;16.388;2023-04-10T18:41:14;25.67;;;20.37;;
19329;SDS011;9799;48.214;16.388;2023-04-10T18:44:36;26.33;;;21.60;;
19329;SDS011;9799;48.214;16.388;2023-04-10T18:47:57;26.47;;;20.70;;
19329;SDS011;9799;48.214;16.388;2023-04-10T18:51:18;27.90;;;20.30;;
19329;SDS011;9799;48.214;16.388;2023-04-10T18:54:42;28.57;;;21.30;;
19329;SDS011;9799;48.214;16.388;2023-04-10T18:58:05;27.63;;;21.00;;
19329;SDS011;9799;48.214;16.388;2023-04-10T19:01:26;26.60;;;20.93;;
19329;SDS011;9799;48.214;16.388;2023-04-10T19:04:47;29.77;;;22.97;;
19329;SDS011;9799;48.214;16.388;2023-04-10T19:08:08;29.40;;;22.50;;
19329;SDS011;9799;48.214;16.388;2023-04-10T19:11:32;30.27;;;22.63;;
19329;SDS011;9799;48.214;16.388;2023-04-10T19:14:55;31.73;;;22.77;;
19329;SDS011;9799;48.214;16.388;2023-04-10T19:18:16;25.73;;;21.33;;
19329;SDS011;9799;48.214;16.388;2023-04-10T19:21:38;31.37;;;22.93;;
19329;SDS011;9799;48.214;16.388;2023-04-10T19:24:59;28.30;;;22.17;;
19329;SDS011;9799;48.214;16.388;2023-04-10T19:28:21;29.10;;;22.97;;
19329;SDS011;9799;48.214;16.388;2023-04-10T19:31:45;30.07;;;22.17;;
19329;SDS011;9799;48.214;16.388;2023-04-10T19:35:06;29.00;;;22.90;;
19329;SDS011;9799;48.214;16.388;2023-04-10T19:38:28;30.70;;;23.27;;
19329;SDS011;9799;48.214;16.388;2023-04-10T19:41:50;31.93;;;24.23;;
19329;SDS011;9799;48.214;16.388;2023-04-10T19:45:11;31.20;;;22.73;;
19329;SDS011;9799;48.214;16.388;2023-04-10T19:48:35;31.17;;;23.73;;
19329;SDS011;9799;48.214;16.388;2023-04-10T19:51:56;31.57;;;24.47;;
19329;SDS011;9799;48.214;16.388;2023-04-10T19:55:17;28.97;;;22.73;;